Mollusk, Virginia
Current Conditions -  °F | °C
As of 2:15 AM on Wednesday 22 Oct 2014 (Local Time) from KW75 Reporting Station
Overcast Overcast  
Wind Chill: 55°   Ceiling: 1600
Heat Index: 55°   Visibility: 10mi
Dew Point: 51°   Wind: 12mph
Humidity: 87%   Direction: 330°NNW
Pressure: 29.83"   Gusts: 16mph
Location:  37.73°N, 76.54°W
Report Text: KW75 220615Z AUTO 33010G14KT 300V360 10SM OVC016 13/11 A2983 RMK AO1 T01270106
Loading
Personal Weather Stations






























Interactive Weather Map New forecast layout! Learn more

10-Day Weather Forecast

Advertisements
Track Severe Weather on mobile